sensor_id;sensor_type;location;lat;lon;timestamp;temperature;humidity
5743;DHT22;2896;53.500;10.020;2023-03-01T00:01:02;-1.80;1.00
5743;DHT22;2896;53.500;10.020;2023-03-01T00:03:29;-3.10;1.00
5743;DHT22;2896;53.500;10.020;2023-03-01T00:05:57;-3.10;1.00
5743;DHT22;2896;53.500;10.020;2023-03-01T00:08:24;-3.20;1.00
5743;DHT22;2896;53.500;10.020;2023-03-01T00:11:00;-3.30;1.00
5743;DHT22;2896;53.500;10.020;2023-03-01T00:13:26;-3.20;1.00
5743;DHT22;2896;53.500;10.020;2023-03-01T00:15:53;-1.20;1.00
5743;DHT22;2896;53.500;10.020;2023-03-01T00:18:20;-2.80;1.00
5743;DHT22;2896;53.500;10.020;2023-03-01T00:20:50;-3.20;1.00
5743;DHT22;2896;53.500;10.020;2023-03-01T00:23:18;-3.20;1.00
5743;DHT22;2896;53.500;10.020;2023-03-01T00:25:45;-0.90;15.60
5743;DHT22;2896;53.500;10.020;2023-03-01T00:28:12;-3.20;23.20
5743;DHT22;2896;53.500;10.020;2023-03-01T00:30:39;-3.20;38.20
5743;DHT22;2896;53.500;10.020;2023-03-01T00:33:05;-2.70;38.30
5743;DHT22;2896;53.500;10.020;2023-03-01T00:35:32;-3.20;48.60
5743;DHT22;2896;53.500;10.020;2023-03-01T00:38:00;-3.30;49.20
5743;DHT22;2896;53.500;10.020;2023-03-01T00:40:28;-0.90;73.90
5743;DHT22;2896;53.500;10.020;2023-03-01T00:42:55;-3.20;41.00
5743;DHT22;2896;53.500;10.020;2023-03-01T00:45:22;-3.30;44.00
5743;DHT22;2896;53.500;10.020;2023-03-01T00:47:49;-3.50;54.30
5743;DHT22;2896;53.500;10.020;2023-03-01T00:50:17;-3.30;57.50
5743;DHT22;2896;53.500;10.020;2023-03-01T00:52:44;-3.30;72.50
5743;DHT22;2896;53.500;10.020;2023-03-01T00:55:11;-3.30;78.90
5743;DHT22;2896;53.500;10.020;2023-03-01T00:57:39;-3.40;79.20
5743;DHT22;2896;53.500;10.020;2023-03-01T01:00:07;-3.50;98.90
5743;DHT22;2896;53.500;10.020;2023-03-01T01:02:35;-3.40;86.20
5743;DHT22;2896;53.500;10.020;2023-03-01T01:05:01;-3.40;93.30
5743;DHT22;2896;53.500;10.020;2023-03-01T01:07:28;-2.60;94.10
5743;DHT22;2896;53.500;10.020;2023-03-01T01:09:55;-3.50;95.30
5743;DHT22;2896;53.500;10.020;2023-03-01T01:12:22;-2.00;95.50
5743;DHT22;2896;53.500;10.020;2023-03-01T01:14:50;-3.50;99.90
5743;DHT22;2896;53.500;10.020;2023-03-01T01:17:16;-3.40;99.90
5743;DHT22;2896;53.500;10.020;2023-03-01T01:19:43;-2.90;99.90
5743;DHT22;2896;53.500;10.020;2023-03-01T01:22:10;-3.50;99.90
5743;DHT22;2896;53.500;10.020;2023-03-01T01:24:36;-3.50;99.90
5743;DHT22;2896;53.500;10.020;2023-03-01T01:27:03;-3.60;99.90
5743;DHT22;2896;53.500;10.020;2023-03-01T01:29:30;-3.50;99.90
5743;DHT22;2896;53.500;10.020;2023-03-01T01:31:58;-3.60;99.90
5743;DHT22;2896;53.500;10.020;2023-03-01T01:34:24;-1.80;99.90
5743;DHT22;2896;53.500;10.020;2023-03-01T01:36:52;-3.50;99.90
5743;DHT22;2896;53.500;10.020;2023-03-01T01:39:19;-3.50;99.90
5743;DHT22;2896;53.500;10.020;2023-03-01T01:41:46;-3.50;99.90
5743;DHT22;2896;53.500;10.020;2023-03-01T01:44:17;-2.10;99.90
5743;DHT22;2896;53.500;10.020;2023-03-01T01:46:47;-4.70;99.90
5743;DHT22;2896;53.500;10.020;2023-03-01T01:49:24;-3.50;99.90
5743;DHT22;2896;53.500;10.020;2023-03-01T01:51:56;-3.60;99.90
5743;DHT22;2896;53.500;10.020;2023-03-01T01:54:27;-3.60;99.90
5743;DHT22;2896;53.500;10.020;2023-03-01T01:56:59;-3.60;99.90
5743;DHT22;2896;53.500;10.020;2023-03-01T01:59:28;-3.50;99.90
5743;DHT22;2896;53.500;10.020;2023-03-01T02:01:58;-0.80;99.90
5743;DHT22;2896;53.500;10.020;2023-03-01T02:04:28;-3.40;99.90
5743;DHT22;2896;53.500;10.020;2023-03-01T02:06:59;-3.40;99.90
5743;DHT22;2896;53.500;10.020;2023-03-01T02:09:28;-3.70;99.90
5743;DHT22;2896;53.500;10.020;2023-03-01T02:11:57;-3.60;1.00
5743;DHT22;2896;53.500;10.020;2023-03-01T02:14:24;-1.60;1.00
5743;DHT22;2896;53.500;10.020;2023-03-01T02:16:52;-3.30;1.00
5743;DHT22;2896;53.500;10.020;2023-03-01T02:19:29;-3.20;1.00
5743;DHT22;2896;53.500;10.020;2023-03-01T02:22:02;-0.90;1.00
5743;DHT22;2896;53.500;10.020;2023-03-01T02:24:38;-3.10;1.00
5743;DHT22;2896;53.500;10.020;2023-03-01T02:27:09;-3.20;99.90
5743;DHT22;2896;53.500;10.020;2023-03-01T02:29:38;-2.90;99.90
5743;DHT22;2896;53.500;10.020;2023-03-01T02:32:05;-1.80;99.90
5743;DHT22;2896;53.500;10.020;2023-03-01T02:34:32;-3.00;99.90
5743;DHT22;2896;53.500;10.020;2023-03-01T02:37:01;-3.20;99.90
5743;DHT22;2896;53.500;10.020;2023-03-01T02:39:33;-3.10;99.90
5743;DHT22;2896;53.500;10.020;2023-03-01T02:42:01;-3.00;99.90
5743;DHT22;2896;53.500;10.020;2023-03-01T02:44:29;-3.00;99.90
5743;DHT22;2896;53.500;10.020;2023-03-01T02:46:58;-1.40;99.90
5743;DHT22;2896;53.500;10.020;2023-03-01T02:49:29;-3.00;99.90
5743;DHT22;2896;53.500;10.020;2023-03-01T02:55:00;-3.20;99.90
5743;DHT22;2896;53.500;10.020;2023-03-01T02:57:29;-3.20;99.90
5743;DHT22;2896;53.500;10.020;2023-03-01T02:59:58;-3.20;99.90
5743;DHT22;2896;53.500;10.020;2023-03-01T03:02:29;-3.30;99.90
5743;DHT22;2896;53.500;10.020;2023-03-01T03:05:04;-3.20;99.90
5743;DHT22;2896;53.500;10.020;2023-03-01T03:07:32;-3.20;99.90
5743;DHT22;2896;53.500;10.020;2023-03-01T03:09:59;-2.10;99.90
5743;DHT22;2896;53.500;10.020;2023-03-01T03:12:26;-3.30;99.90
5743;DHT22;2896;53.500;10.020;2023-03-01T03:14:52;-3.30;99.90
5743;DHT22;2896;53.500;10.020;2023-03-01T03:17:19;-3.30;1.00
5743;DHT22;2896;53.500;10.020;2023-03-01T03:19:47;-3.20;1.00
5743;DHT22;2896;53.500;10.020;2023-03-01T03:22:14;-0.80;1.00
5743;DHT22;2896;53.500;10.020;2023-03-01T03:24:41;-0.60;1.00
5743;DHT22;2896;53.500;10.020;2023-03-01T03:27:07;-0.80;1.00
5743;DHT22;2896;53.500;10.020;2023-03-01T03:29:34;-0.80;1.00
5743;DHT22;2896;53.500;10.020;2023-03-01T03:32:01;-0.70;1.00
5743;DHT22;2896;53.500;10.020;2023-03-01T03:34:28;-3.30;1.00
5743;DHT22;2896;53.500;10.020;2023-03-01T03:36:57;-3.20;1.00
5743;DHT22;2896;53.500;10.020;2023-03-01T03:39:25;-3.20;1.00
5743;DHT22;2896;53.500;10.020;2023-03-01T03:41:53;-3.10;1.00
5743;DHT22;2896;53.500;10.020;2023-03-01T03:44:19;-3.10;1.00
5743;DHT22;2896;53.500;10.020;2023-03-01T03:46:46;-3.10;1.00
5743;DHT22;2896;53.500;10.020;2023-03-01T03:49:13;-3.00;1.00
5743;DHT22;2896;53.500;10.020;2023-03-01T03:51:39;-2.40;1.00
5743;DHT22;2896;53.500;10.020;2023-03-01T03:54:07;-2.80;1.00
5743;DHT22;2896;53.500;10.020;2023-03-01T03:56:34;-1.80;1.00
5743;DHT22;2896;53.500;10.020;2023-03-01T03:59:01;-2.00;1.00
5743;DHT22;2896;53.500;10.020;2023-03-01T04:01:27;-1.20;1.00
5743;DHT22;2896;53.500;10.020;2023-03-01T04:03:54;-2.60;1.00
5743;DHT22;2896;53.500;10.020;2023-03-01T04:06:21;-1.90;1.00
5743;DHT22;2896;53.500;10.020;2023-03-01T04:08:48;-2.50;1.00
5743;DHT22;2896;53.500;10.020;2023-03-01T04:11:17;-1.80;1.00
5743;DHT22;2896;53.500;10.020;2023-03-01T04:13:55;-1.90;1.00
5743;DHT22;2896;53.500;10.020;2023-03-01T04:16:22;-2.40;1.00
5743;DHT22;2896;53.500;10.020;2023-03-01T04:18:49;-0.70;1.00
5743;DHT22;2896;53.500;10.020;2023-03-01T04:21:17;-2.30;1.00
5743;DHT22;2896;53.500;10.020;2023-03-01T04:23:45;-0.30;1.00
5743;DHT22;2896;53.500;10.020;2023-03-01T04:26:12;-2.00;1.00
5743;DHT22;2896;53.500;10.020;2023-03-01T04:28:41;-2.10;1.00
5743;DHT22;2896;53.500;10.020;2023-03-01T04:31:12;-0.90;1.00
5743;DHT22;2896;53.500;10.020;2023-03-01T04:33:45;-2.50;1.00
5743;DHT22;2896;53.500;10.020;2023-03-01T04:36:13;-2.10;1.00
5743;DHT22;2896;53.500;10.020;2023-03-01T04:38:41;-1.90;1.00
5743;DHT22;2896;53.500;10.020;2023-03-01T04:41:09;-1.90;1.00
5743;DHT22;2896;53.500;10.020;2023-03-01T04:43:37;-1.80;1.00
5743;DHT22;2896;53.500;10.020;2023-03-01T04:46:07;-1.80;1.00
5743;DHT22;2896;53.500;10.020;2023-03-01T04:48:35;-1.70;1.00
5743;DHT22;2896;53.500;10.020;2023-03-01T04:51:01;-1.70;1.00
5743;DHT22;2896;53.500;10.020;2023-03-01T04:53:29;-1.70;1.00
5743;DHT22;2896;53.500;10.020;2023-03-01T04:55:56;-1.70;1.00
5743;DHT22;2896;53.500;10.020;2023-03-01T04:58:23;-1.60;1.00
5743;DHT22;2896;53.500;10.020;2023-03-01T05:00:50;-1.50;99.90
5743;DHT22;2896;53.500;10.020;2023-03-01T05:03:19;-1.50;99.90
5743;DHT22;2896;53.500;10.020;2023-03-01T05:05:47;-1.50;99.90
5743;DHT22;2896;53.500;10.020;2023-03-01T05:08:14;-1.40;99.90
5743;DHT22;2896;53.500;10.020;2023-03-01T05:10:45;-1.40;99.90
5743;DHT22;2896;53.500;10.020;2023-03-01T05:13:13;-1.40;99.90
5743;DHT22;2896;53.500;10.020;2023-03-01T05:15:46;-1.30;99.90
5743;DHT22;2896;53.500;10.020;2023-03-01T05:18:13;-1.30;99.90
5743;DHT22;2896;53.500;10.020;2023-03-01T05:20:41;-1.30;99.90
5743;DHT22;2896;53.500;10.020;2023-03-01T05:23:08;-1.20;99.90
5743;DHT22;2896;53.500;10.020;2023-03-01T05:25:34;-1.20;99.90
5743;DHT22;2896;53.500;10.020;2023-03-01T05:28:06;-1.20;99.90
5743;DHT22;2896;53.500;10.020;2023-03-01T05:30:33;-1.20;99.90
5743;DHT22;2896;53.500;10.020;2023-03-01T05:33:00;-1.10;99.90
5743;DHT22;2896;53.500;10.020;2023-03-01T05:35:27;-1.00;99.90
5743;DHT22;2896;53.500;10.020;2023-03-01T05:37:56;-1.00;99.90
5743;DHT22;2896;53.500;10.020;2023-03-01T05:40:23;-1.00;99.90
5743;DHT22;2896;53.500;10.020;2023-03-01T05:42:52;-1.00;99.90
5743;DHT22;2896;53.500;10.020;2023-03-01T05:45:20;-0.90;99.90
5743;DHT22;2896;53.500;10.020;2023-03-01T05:47:48;-0.90;99.90
5743;DHT22;2896;53.500;10.020;2023-03-01T05:50:16;-0.90;99.90
5743;DHT22;2896;53.500;10.020;2023-03-01T05:52:45;-0.90;99.90
5743;DHT22;2896;53.500;10.020;2023-03-01T05:55:15;-0.80;99.90
5743;DHT22;2896;53.500;10.020;2023-03-01T05:57:42;-0.90;99.90
5743;DHT22;2896;53.500;10.020;2023-03-01T06:00:10;-0.80;99.90
5743;DHT22;2896;53.500;10.020;2023-03-01T06:02:37;-0.80;99.90
5743;DHT22;2896;53.500;10.020;2023-03-01T06:05:04;-0.80;99.90
5743;DHT22;2896;53.500;10.020;2023-03-01T06:07:32;-0.70;99.90
5743;DHT22;2896;53.500;10.020;2023-03-01T06:09:59;-2.60;99.90
5743;DHT22;2896;53.500;10.020;2023-03-01T06:12:30;-0.70;99.90
5743;DHT22;2896;53.500;10.020;2023-03-01T06:14:57;-0.60;99.90
5743;DHT22;2896;53.500;10.020;2023-03-01T06:17:23;-0.60;99.90
5743;DHT22;2896;53.500;10.020;2023-03-01T06:19:50;-0.60;99.90
5743;DHT22;2896;53.500;10.020;2023-03-01T06:22:17;-0.60;99.90
5743;DHT22;2896;53.500;10.020;2023-03-01T06:24:44;-0.60;99.90
5743;DHT22;2896;53.500;10.020;2023-03-01T06:27:11;-0.40;99.90
5743;DHT22;2896;53.500;10.020;2023-03-01T06:29:39;-0.50;99.90
5743;DHT22;2896;53.500;10.020;2023-03-01T06:32:06;-0.40;99.90
5743;DHT22;2896;53.500;10.020;2023-03-01T06:34:33;-0.40;99.90
5743;DHT22;2896;53.500;10.020;2023-03-01T06:37:00;-0.30;99.90
5743;DHT22;2896;53.500;10.020;2023-03-01T06:39:28;-0.20;99.90
5743;DHT22;2896;53.500;10.020;2023-03-01T06:41:54;-0.10;99.90
5743;DHT22;2896;53.500;10.020;2023-03-01T06:44:21;-0.10;99.90
5743;DHT22;2896;53.500;10.020;2023-03-01T06:46:49;-0.10;99.90
5743;DHT22;2896;53.500;10.020;2023-03-01T06:49:16;-0.10;47.10
5743;DHT22;2896;53.500;10.020;2023-03-01T06:51:43;0.00;16.50
5743;DHT22;2896;53.500;10.020;2023-03-01T06:54:10;0.00;1.00
5743;DHT22;2896;53.500;10.020;2023-03-01T06:56:37;0.00;1.00
5743;DHT22;2896;53.500;10.020;2023-03-01T06:59:04;0.10;1.00
5743;DHT22;2896;53.500;10.020;2023-03-01T07:01:31;0.20;1.00
5743;DHT22;2896;53.500;10.020;2023-03-01T07:03:59;0.20;1.00
5743;DHT22;2896;53.500;10.020;2023-03-01T07:06:26;0.20;1.00
5743;DHT22;2896;53.500;10.020;2023-03-01T07:08:52;0.30;1.00
5743;DHT22;2896;53.500;10.020;2023-03-01T07:11:19;0.30;1.00
5743;DHT22;2896;53.500;10.020;2023-03-01T07:13:46;0.40;1.00
5743;DHT22;2896;53.500;10.020;2023-03-01T07:16:12;0.40;1.00
5743;DHT22;2896;53.500;10.020;2023-03-01T07:18:39;0.50;1.00
5743;DHT22;2896;53.500;10.020;2023-03-01T07:21:09;0.60;1.00
5743;DHT22;2896;53.500;10.020;2023-03-01T07:23:37;0.70;1.00
5743;DHT22;2896;53.500;10.020;2023-03-01T07:26:04;0.70;1.00
5743;DHT22;2896;53.500;10.020;2023-03-01T07:28:31;0.80;1.00
5743;DHT22;2896;53.500;10.020;2023-03-01T07:31:01;0.90;1.00
5743;DHT22;2896;53.500;10.020;2023-03-01T07:33:28;1.00;1.00
5743;DHT22;2896;53.500;10.020;2023-03-01T07:35:59;1.10;1.00
5743;DHT22;2896;53.500;10.020;2023-03-01T07:38:28;1.20;1.00
5743;DHT22;2896;53.500;10.020;2023-03-01T07:40:58;1.30;1.00
5743;DHT22;2896;53.500;10.020;2023-03-01T07:43:25;1.40;1.00
5743;DHT22;2896;53.500;10.020;2023-03-01T07:45:51;1.50;1.00
5743;DHT22;2896;53.500;10.020;2023-03-01T07:48:18;1.60;1.00
5743;DHT22;2896;53.500;10.020;2023-03-01T07:50:45;1.70;1.00
5743;DHT22;2896;53.500;10.020;2023-03-01T07:53:12;1.70;1.00
5743;DHT22;2896;53.500;10.020;2023-03-01T07:55:40;1.90;1.00
5743;DHT22;2896;53.500;10.020;2023-03-01T07:58:06;1.90;1.00
5743;DHT22;2896;53.500;10.020;2023-03-01T08:00:33;2.00;1.00
5743;DHT22;2896;53.500;10.020;2023-03-01T08:03:00;2.10;1.00
5743;DHT22;2896;53.500;10.020;2023-03-01T08:05:27;2.20;1.00
5743;DHT22;2896;53.500;10.020;2023-03-01T08:07:54;2.30;1.00
5743;DHT22;2896;53.500;10.020;2023-03-01T08:10:20;2.50;1.00
5743;DHT22;2896;53.500;10.020;2023-03-01T08:12:51;2.50;1.00
5743;DHT22;2896;53.500;10.020;2023-03-01T08:15:18;2.70;99.90
5743;DHT22;2896;53.500;10.020;2023-03-01T08:17:45;3.00;99.90
5743;DHT22;2896;53.500;10.020;2023-03-01T08:20:11;2.90;99.90
5743;DHT22;2896;53.500;10.020;2023-03-01T08:22:38;2.90;99.90
5743;DHT22;2896;53.500;10.020;2023-03-01T08:25:05;3.00;99.90
5743;DHT22;2896;53.500;10.020;2023-03-01T08:27:32;3.00;99.90
5743;DHT22;2896;53.500;10.020;2023-03-01T08:30:00;3.30;99.90
5743;DHT22;2896;53.500;10.020;2023-03-01T08:32:26;3.30;99.90
5743;DHT22;2896;53.500;10.020;2023-03-01T08:34:53;3.40;99.90
5743;DHT22;2896;53.500;10.020;2023-03-01T08:37:19;3.50;99.90
5743;DHT22;2896;53.500;10.020;2023-03-01T08:39:46;3.60;99.90
5743;DHT22;2896;53.500;10.020;2023-03-01T08:42:13;3.70;99.90
5743;DHT22;2896;53.500;10.020;2023-03-01T08:44:40;3.70;99.90
5743;DHT22;2896;53.500;10.020;2023-03-01T08:47:08;3.70;99.90
5743;DHT22;2896;53.500;10.020;2023-03-01T08:49:34;3.80;99.90
5743;DHT22;2896;53.500;10.020;2023-03-01T08:52:02;4.00;99.90
5743;DHT22;2896;53.500;10.020;2023-03-01T08:54:29;4.10;99.90
5743;DHT22;2896;53.500;10.020;2023-03-01T08:56:55;4.30;99.90
5743;DHT22;2896;53.500;10.020;2023-03-01T08:59:25;4.40;99.90
5743;DHT22;2896;53.500;10.020;2023-03-01T09:01:52;4.50;99.90
5743;DHT22;2896;53.500;10.020;2023-03-01T09:04:21;4.60;99.90
5743;DHT22;2896;53.500;10.020;2023-03-01T09:06:47;4.70;99.90
5743;DHT22;2896;53.500;10.020;2023-03-01T09:09:15;4.70;99.90
5743;DHT22;2896;53.500;10.020;2023-03-01T09:11:43;4.80;99.90
5743;DHT22;2896;53.500;10.020;2023-03-01T09:14:11;5.00;99.90
5743;DHT22;2896;53.500;10.020;2023-03-01T09:16:38;5.10;99.90
5743;DHT22;2896;53.500;10.020;2023-03-01T09:19:05;5.20;99.90
5743;DHT22;2896;53.500;10.020;2023-03-01T09:21:33;5.30;99.90
5743;DHT22;2896;53.500;10.020;2023-03-01T09:24:00;5.60;99.90
5743;DHT22;2896;53.500;10.020;2023-03-01T09:26:26;5.30;99.90
5743;DHT22;2896;53.500;10.020;2023-03-01T09:28:54;5.60;99.90
5743;DHT22;2896;53.500;10.020;2023-03-01T09:31:23;5.80;99.90
5743;DHT22;2896;53.500;10.020;2023-03-01T09:33:51;5.90;99.90
5743;DHT22;2896;53.500;10.020;2023-03-01T09:36:20;6.20;99.90
5743;DHT22;2896;53.500;10.020;2023-03-01T09:38:49;6.30;99.90
5743;DHT22;2896;53.500;10.020;2023-03-01T09:41:37;6.10;99.90
5743;DHT22;2896;53.500;10.020;2023-03-01T09:44:11;6.10;99.90
5743;DHT22;2896;53.500;10.020;2023-03-01T09:46:41;6.20;99.90
5743;DHT22;2896;53.500;10.020;2023-03-01T09:49:13;6.90;99.90
5743;DHT22;2896;53.500;10.020;2023-03-01T09:51:43;7.00;99.90
5743;DHT22;2896;53.500;10.020;2023-03-01T09:54:13;6.80;99.90
5743;DHT22;2896;53.500;10.020;2023-03-01T09:56:44;6.80;99.90
5743;DHT22;2896;53.500;10.020;2023-03-01T09:59:19;7.00;99.90
5743;DHT22;2896;53.500;10.020;2023-03-01T10:01:55;7.00;99.90
5743;DHT22;2896;53.500;10.020;2023-03-01T10:04:38;7.00;99.90
5743;DHT22;2896;53.500;10.020;2023-03-01T10:07:21;7.10;99.90
5743;DHT22;2896;53.500;10.020;2023-03-01T10:09:50;7.30;99.90
5743;DHT22;2896;53.500;10.020;2023-03-01T10:12:18;7.50;99.90
5743;DHT22;2896;53.500;10.020;2023-03-01T10:14:53;8.70;99.90
5743;DHT22;2896;53.500;10.020;2023-03-01T10:17:28;7.70;99.90
5743;DHT22;2896;53.500;10.020;2023-03-01T10:20:13;8.00;99.90
5743;DHT22;2896;53.500;10.020;2023-03-01T10:22:41;8.00;99.90
5743;DHT22;2896;53.500;10.020;2023-03-01T10:25:13;7.90;99.90
5743;DHT22;2896;53.500;10.020;2023-03-01T10:27:46;7.80;99.90
5743;DHT22;2896;53.500;10.020;2023-03-01T10:30:18;8.00;99.90
5743;DHT22;2896;53.500;10.020;2023-03-01T10:32:46;8.40;99.90
5743;DHT22;2896;53.500;10.020;2023-03-01T10:35:19;8.20;99.90
5743;DHT22;2896;53.500;10.020;2023-03-01T10:37:57;8.30;99.90
5743;DHT22;2896;53.500;10.020;2023-03-01T10:40:25;8.50;99.90
5743;DHT22;2896;53.500;10.020;2023-03-01T10:42:52;8.70;99.90
5743;DHT22;2896;53.500;10.020;2023-03-01T10:45:31;8.60;99.90
5743;DHT22;2896;53.500;10.020;2023-03-01T10:48:13;8.50;99.90
5743;DHT22;2896;53.500;10.020;2023-03-01T10:50:40;8.40;99.90
5743;DHT22;2896;53.500;10.020;2023-03-01T10:53:21;8.40;99.90
5743;DHT22;2896;53.500;10.020;2023-03-01T10:56:01;8.40;99.90
5743;DHT22;2896;53.500;10.020;2023-03-01T10:58:29;8.10;99.90
5743;DHT22;2896;53.500;10.020;2023-03-01T11:00:58;8.10;99.90
5743;DHT22;2896;53.500;10.020;2023-03-01T11:03:27;8.20;99.90
5743;DHT22;2896;53.500;10.020;2023-03-01T11:06:00;8.20;99.90
5743;DHT22;2896;53.500;10.020;2023-03-01T11:08:35;8.30;99.90
5743;DHT22;2896;53.500;10.020;2023-03-01T11:11:17;8.20;99.90
5743;DHT22;2896;53.500;10.020;2023-03-01T11:14:03;8.40;99.90
5743;DHT22;2896;53.500;10.020;2023-03-01T11:16:34;8.50;99.90
5743;DHT22;2896;53.500;10.020;2023-03-01T11:19:17;8.60;99.90
5743;DHT22;2896;53.500;10.020;2023-03-01T11:21:53;8.50;99.90
5743;DHT22;2896;53.500;10.020;2023-03-01T11:24:26;8.80;99.90
5743;DHT22;2896;53.500;10.020;2023-03-01T11:26:55;9.30;99.90
5743;DHT22;2896;53.500;10.020;2023-03-01T11:29:27;9.50;99.90
5743;DHT22;2896;53.500;10.020;2023-03-01T11:32:00;9.80;99.90
5743;DHT22;2896;53.500;10.020;2023-03-01T11:34:38;10.10;99.90
5743;DHT22;2896;53.500;10.020;2023-03-01T11:37:15;9.90;99.90
5743;DHT22;2896;53.500;10.020;2023-03-01T11:39:53;10.30;99.90
5743;DHT22;2896;53.500;10.020;2023-03-01T11:42:28;9.80;99.90
5743;DHT22;2896;53.500;10.020;2023-03-01T11:44:59;10.20;99.90
5743;DHT22;2896;53.500;10.020;2023-03-01T11:47:38;10.10;99.90
5743;DHT22;2896;53.500;10.020;2023-03-01T11:50:18;10.30;99.90
5743;DHT22;2896;53.500;10.020;2023-03-01T11:52:56;10.60;99.90
5743;DHT22;2896;53.500;10.020;2023-03-01T11:55:36;10.80;99.90
5743;DHT22;2896;53.500;10.020;2023-03-01T11:58:26;10.80;99.90
5743;DHT22;2896;53.500;10.020;2023-03-01T12:01:02;11.00;99.90
5743;DHT22;2896;53.500;10.020;2023-03-01T12:03:42;11.10;99.90
5743;DHT22;2896;53.500;10.020;2023-03-01T12:06:32;11.30;99.90
5743;DHT22;2896;53.500;10.020;2023-03-01T12:09:11;11.50;99.90
5743;DHT22;2896;53.500;10.020;2023-03-01T12:11:47;11.80;99.90
5743;DHT22;2896;53.500;10.020;2023-03-01T12:14:32;12.00;99.90
5743;DHT22;2896;53.500;10.020;2023-03-01T12:17:24;12.00;99.90
5743;DHT22;2896;53.500;10.020;2023-03-01T12:20:05;12.00;99.90
5743;DHT22;2896;53.500;10.020;2023-03-01T12:22:43;11.60;99.90
5743;DHT22;2896;53.500;10.020;2023-03-01T12:25:21;10.80;99.90
5743;DHT22;2896;53.500;10.020;2023-03-01T12:28:08;12.10;99.90
5743;DHT22;2896;53.500;10.020;2023-03-01T12:30:58;12.30;99.90
5743;DHT22;2896;53.500;10.020;2023-03-01T12:33:32;12.30;99.90
5743;DHT22;2896;53.500;10.020;2023-03-01T12:39:17;11.60;99.90
5743;DHT22;2896;53.500;10.020;2023-03-01T12:41:54;12.00;99.90
5743;DHT22;2896;53.500;10.020;2023-03-01T12:44:47;12.10;99.90
5743;DHT22;2896;53.500;10.020;2023-03-01T12:47:31;12.10;99.90
5743;DHT22;2896;53.500;10.020;2023-03-01T12:50:05;12.10;99.90
5743;DHT22;2896;53.500;10.020;2023-03-01T12:52:40;11.90;99.90
5743;DHT22;2896;53.500;10.020;2023-03-01T12:55:24;12.00;99.90
5743;DHT22;2896;53.500;10.020;2023-03-01T12:58:00;11.60;99.90
5743;DHT22;2896;53.500;10.020;2023-03-01T13:00:30;11.80;99.90
5743;DHT22;2896;53.500;10.020;2023-03-01T13:03:09;11.70;99.90
5743;DHT22;2896;53.500;10.020;2023-03-01T13:05:45;12.30;99.90
5743;DHT22;2896;53.500;10.020;2023-03-01T13:08:19;11.90;99.90
5743;DHT22;2896;53.500;10.020;2023-03-01T13:10:49;12.20;99.90
5743;DHT22;2896;53.500;10.020;2023-03-01T13:13:20;11.90;99.90
5743;DHT22;2896;53.500;10.020;2023-03-01T13:15:48;12.20;99.90
5743;DHT22;2896;53.500;10.020;2023-03-01T13:18:32;11.60;99.90
5743;DHT22;2896;53.500;10.020;2023-03-01T13:21:01;12.00;99.90
5743;DHT22;2896;53.500;10.020;2023-03-01T13:23:30;11.90;99.90
5743;DHT22;2896;53.500;10.020;2023-03-01T13:26:05;12.40;99.90
5743;DHT22;2896;53.500;10.020;2023-03-01T13:28:49;12.50;99.90
5743;DHT22;2896;53.500;10.020;2023-03-01T13:37:28;12.60;99.90
5743;DHT22;2896;53.500;10.020;2023-03-01T13:39:58;12.60;99.90
5743;DHT22;2896;53.500;10.020;2023-03-01T13:42:36;12.20;99.90
5743;DHT22;2896;53.500;10.020;2023-03-01T13:45:05;12.20;99.90
5743;DHT22;2896;53.500;10.020;2023-03-01T13:47:41;12.60;99.90
5743;DHT22;2896;53.500;10.020;2023-03-01T13:50:19;13.10;99.90
5743;DHT22;2896;53.500;10.020;2023-03-01T13:52:50;13.20;99.90
5743;DHT22;2896;53.500;10.020;2023-03-01T13:55:20;12.30;99.90
5743;DHT22;2896;53.500;10.020;2023-03-01T13:57:51;12.00;99.90
5743;DHT22;2896;53.500;10.020;2023-03-01T14:00:33;12.30;99.90
5743;DHT22;2896;53.500;10.020;2023-03-01T14:03:06;12.10;99.90
5743;DHT22;2896;53.500;10.020;2023-03-01T14:05:37;12.30;99.90
5743;DHT22;2896;53.500;10.020;2023-03-01T14:08:04;12.00;99.90
5743;DHT22;2896;53.500;10.020;2023-03-01T14:10:37;11.70;99.90
5743;DHT22;2896;53.500;10.020;2023-03-01T14:13:23;11.90;99.90
5743;DHT22;2896;53.500;10.020;2023-03-01T14:16:06;12.00;99.90
5743;DHT22;2896;53.500;10.020;2023-03-01T14:18:39;11.60;99.90
5743;DHT22;2896;53.500;10.020;2023-03-01T14:21:09;11.60;99.90
5743;DHT22;2896;53.500;10.020;2023-03-01T14:23:38;12.40;99.90
5743;DHT22;2896;53.500;10.020;2023-03-01T14:26:08;11.90;99.90
5743;DHT22;2896;53.500;10.020;2023-03-01T14:28:37;11.70;99.90
5743;DHT22;2896;53.500;10.020;2023-03-01T14:31:35;12.00;99.90
5743;DHT22;2896;53.500;10.020;2023-03-01T14:34:02;11.90;99.90
5743;DHT22;2896;53.500;10.020;2023-03-01T14:36:32;12.20;99.90
5743;DHT22;2896;53.500;10.020;2023-03-01T14:38:59;12.00;99.90
5743;DHT22;2896;53.500;10.020;2023-03-01T14:41:32;11.60;99.90
5743;DHT22;2896;53.500;10.020;2023-03-01T14:44:02;11.70;99.90
5743;DHT22;2896;53.500;10.020;2023-03-01T14:46:32;11.80;99.90
5743;DHT22;2896;53.500;10.020;2023-03-01T14:49:02;12.10;99.90
5743;DHT22;2896;53.500;10.020;2023-03-01T14:51:35;12.20;99.90
5743;DHT22;2896;53.500;10.020;2023-03-01T14:54:02;12.30;99.90
5743;DHT22;2896;53.500;10.020;2023-03-01T14:56:43;12.40;99.90
5743;DHT22;2896;53.500;10.020;2023-03-01T14:59:11;12.30;99.90
5743;DHT22;2896;53.500;10.020;2023-03-01T15:01:38;12.20;99.90
5743;DHT22;2896;53.500;10.020;2023-03-01T15:04:06;12.10;99.90
5743;DHT22;2896;53.500;10.020;2023-03-01T15:06:34;12.50;99.90
5743;DHT22;2896;53.500;10.020;2023-03-01T15:09:01;12.70;99.90
5743;DHT22;2896;53.500;10.020;2023-03-01T15:11:29;12.30;99.90
5743;DHT22;2896;53.500;10.020;2023-03-01T15:13:57;13.30;99.90
5743;DHT22;2896;53.500;10.020;2023-03-01T15:16:25;13.50;99.90
5743;DHT22;2896;53.500;10.020;2023-03-01T15:18:54;13.80;99.90
5743;DHT22;2896;53.500;10.020;2023-03-01T15:21:23;13.60;99.90
5743;DHT22;2896;53.500;10.020;2023-03-01T15:23:54;13.20;99.90
5743;DHT22;2896;53.500;10.020;2023-03-01T15:26:28;13.00;99.90
5743;DHT22;2896;53.500;10.020;2023-03-01T15:28:57;12.40;99.90
5743;DHT22;2896;53.500;10.020;2023-03-01T15:31:26;12.00;99.90
5743;DHT22;2896;53.500;10.020;2023-03-01T15:34:08;11.40;99.90
5743;DHT22;2896;53.500;10.020;2023-03-01T15:36:40;11.10;99.90
5743;DHT22;2896;53.500;10.020;2023-03-01T15:42:00;11.00;99.90
5743;DHT22;2896;53.500;10.020;2023-03-01T15:44:29;10.60;99.90
5743;DHT22;2896;53.500;10.020;2023-03-01T15:46:56;10.50;99.90
5743;DHT22;2896;53.500;10.020;2023-03-01T15:49:33;10.30;99.90
5743;DHT22;2896;53.500;10.020;2023-03-01T15:52:02;10.40;99.90
5743;DHT22;2896;53.500;10.020;2023-03-01T15:54:29;10.20;99.90
5743;DHT22;2896;53.500;10.020;2023-03-01T15:56:56;10.10;99.90
5743;DHT22;2896;53.500;10.020;2023-03-01T15:59:24;9.90;99.90
5743;DHT22;2896;53.500;10.020;2023-03-01T16:01:50;9.90;99.90
5743;DHT22;2896;53.500;10.020;2023-03-01T16:04:18;9.60;99.90
5743;DHT22;2896;53.500;10.020;2023-03-01T16:06:49;9.50;99.90
5743;DHT22;2896;53.500;10.020;2023-03-01T16:09:20;9.30;99.90
5743;DHT22;2896;53.500;10.020;2023-03-01T16:11:47;9.30;99.90
5743;DHT22;2896;53.500;10.020;2023-03-01T16:14:14;9.20;99.90
5743;DHT22;2896;53.500;10.020;2023-03-01T16:16:43;9.00;99.90
5743;DHT22;2896;53.500;10.020;2023-03-01T16:19:10;9.00;99.90
5743;DHT22;2896;53.500;10.020;2023-03-01T16:21:37;8.90;99.90
5743;DHT22;2896;53.500;10.020;2023-03-01T16:24:04;8.80;99.90
5743;DHT22;2896;53.500;10.020;2023-03-01T16:26:31;8.60;99.90
5743;DHT22;2896;53.500;10.020;2023-03-01T16:28:58;8.30;99.90